sensor_id;sensor_type;location;lat;lon;timestamp;temperature;humidity
10245;DHT22;5167;52.164;10.530;2024-01-25T00:00:52;10.60;24.90
10245;DHT22;5167;52.164;10.530;2024-01-25T00:03:17;10.60;25.20
10245;DHT22;5167;52.164;10.530;2024-01-25T00:05:43;10.70;25.10
10245;DHT22;5167;52.164;10.530;2024-01-25T00:08:09;10.70;25.50
10245;DHT22;5167;52.164;10.530;2024-01-25T00:10:34;10.60;25.00
10245;DHT22;5167;52.164;10.530;2024-01-25T00:12:59;10.60;24.90
10245;DHT22;5167;52.164;10.530;2024-01-25T00:15:25;10.60;25.30
10245;DHT22;5167;52.164;10.530;2024-01-25T00:17:50;10.60;25.50
10245;DHT22;5167;52.164;10.530;2024-01-25T00:20:16;10.60;24.80
10245;DHT22;5167;52.164;10.530;2024-01-25T00:22:41;10.60;25.00
10245;DHT22;5167;52.164;10.530;2024-01-25T00:25:07;10.60;25.40
10245;DHT22;5167;52.164;10.530;2024-01-25T00:27:32;10.60;25.50
10245;DHT22;5167;52.164;10.530;2024-01-25T00:29:58;10.60;25.50
10245;DHT22;5167;52.164;10.530;2024-01-25T00:32:23;10.60;26.10
10245;DHT22;5167;52.164;10.530;2024-01-25T00:34:49;10.60;26.20
10245;DHT22;5167;52.164;10.530;2024-01-25T00:37:15;10.50;24.90
10245;DHT22;5167;52.164;10.530;2024-01-25T00:39:41;10.60;26.00
10245;DHT22;5167;52.164;10.530;2024-01-25T00:42:07;10.60;26.20
10245;DHT22;5167;52.164;10.530;2024-01-25T00:44:33;10.50;25.60
10245;DHT22;5167;52.164;10.530;2024-01-25T00:46:59;10.60;25.90
10245;DHT22;5167;52.164;10.530;2024-01-25T00:49:25;10.60;25.40
10245;DHT22;5167;52.164;10.530;2024-01-25T00:51:59;10.50;25.40
10245;DHT22;5167;52.164;10.530;2024-01-25T00:54:28;10.50;26.20
10245;DHT22;5167;52.164;10.530;2024-01-25T00:56:54;10.50;26.20
10245;DHT22;5167;52.164;10.530;2024-01-25T00:59:20;10.50;26.50
10245;DHT22;5167;52.164;10.530;2024-01-25T01:01:48;10.50;26.80
10245;DHT22;5167;52.164;10.530;2024-01-25T01:04:16;10.50;26.80
10245;DHT22;5167;52.164;10.530;2024-01-25T01:06:41;10.50;27.10
10245;DHT22;5167;52.164;10.530;2024-01-25T01:09:07;10.40;27.10
10245;DHT22;5167;52.164;10.530;2024-01-25T01:11:33;10.30;27.20
10245;DHT22;5167;52.164;10.530;2024-01-25T01:13:58;10.40;27.30
10245;DHT22;5167;52.164;10.530;2024-01-25T01:16:24;10.40;27.60
10245;DHT22;5167;52.164;10.530;2024-01-25T01:18:49;10.30;27.10
10245;DHT22;5167;52.164;10.530;2024-01-25T01:21:15;10.40;27.00
10245;DHT22;5167;52.164;10.530;2024-01-25T01:23:40;10.40;26.80
10245;DHT22;5167;52.164;10.530;2024-01-25T01:26:06;10.40;26.90
10245;DHT22;5167;52.164;10.530;2024-01-25T01:28:32;10.40;27.80
10245;DHT22;5167;52.164;10.530;2024-01-25T01:30:57;10.40;27.70
10245;DHT22;5167;52.164;10.530;2024-01-25T01:33:23;10.30;27.50
10245;DHT22;5167;52.164;10.530;2024-01-25T01:35:48;10.30;27.60
10245;DHT22;5167;52.164;10.530;2024-01-25T01:38:14;10.30;27.50
10245;DHT22;5167;52.164;10.530;2024-01-25T01:40:39;10.30;27.90
10245;DHT22;5167;52.164;10.530;2024-01-25T01:43:05;10.30;28.20
10245;DHT22;5167;52.164;10.530;2024-01-25T01:45:31;10.20;27.90
10245;DHT22;5167;52.164;10.530;2024-01-25T01:47:57;10.20;28.70
10245;DHT22;5167;52.164;10.530;2024-01-25T01:50:24;10.10;28.70
10245;DHT22;5167;52.164;10.530;2024-01-25T01:52:50;10.10;28.80
10245;DHT22;5167;52.164;10.530;2024-01-25T01:55:17;10.20;28.90
10245;DHT22;5167;52.164;10.530;2024-01-25T01:57:42;10.10;28.70
10245;DHT22;5167;52.164;10.530;2024-01-25T02:00:09;10.20;28.40
10245;DHT22;5167;52.164;10.530;2024-01-25T02:02:35;10.10;29.50
10245;DHT22;5167;52.164;10.530;2024-01-25T02:05:01;10.10;29.20
10245;DHT22;5167;52.164;10.530;2024-01-25T02:07:27;10.00;29.40
10245;DHT22;5167;52.164;10.530;2024-01-25T02:09:53;10.00;28.80
10245;DHT22;5167;52.164;10.530;2024-01-25T02:12:18;10.00;29.50
10245;DHT22;5167;52.164;10.530;2024-01-25T02:14:45;9.90;30.20
10245;DHT22;5167;52.164;10.530;2024-01-25T02:17:11;9.90;30.00
10245;DHT22;5167;52.164;10.530;2024-01-25T02:19:36;10.10;29.80
10245;DHT22;5167;52.164;10.530;2024-01-25T02:22:04;10.10;29.90
10245;DHT22;5167;52.164;10.530;2024-01-25T02:24:30;9.90;29.60
10245;DHT22;5167;52.164;10.530;2024-01-25T02:26:56;9.90;29.90
10245;DHT22;5167;52.164;10.530;2024-01-25T02:29:21;9.80;30.60
10245;DHT22;5167;52.164;10.530;2024-01-25T02:31:47;9.90;30.50
10245;DHT22;5167;52.164;10.530;2024-01-25T02:34:12;10.00;29.90
10245;DHT22;5167;52.164;10.530;2024-01-25T02:36:38;9.90;30.00
10245;DHT22;5167;52.164;10.530;2024-01-25T02:39:03;9.90;29.70
10245;DHT22;5167;52.164;10.530;2024-01-25T02:41:30;9.90;29.90
10245;DHT22;5167;52.164;10.530;2024-01-25T02:43:56;9.80;30.40
10245;DHT22;5167;52.164;10.530;2024-01-25T02:46:21;9.80;30.60
10245;DHT22;5167;52.164;10.530;2024-01-25T02:48:48;9.80;29.90
10245;DHT22;5167;52.164;10.530;2024-01-25T02:51:13;9.80;30.20
10245;DHT22;5167;52.164;10.530;2024-01-25T02:53:40;9.70;29.40
10245;DHT22;5167;52.164;10.530;2024-01-25T02:56:06;9.80;30.00
10245;DHT22;5167;52.164;10.530;2024-01-25T02:58:31;9.80;30.70
10245;DHT22;5167;52.164;10.530;2024-01-25T03:00:57;9.70;30.60
10245;DHT22;5167;52.164;10.530;2024-01-25T03:03:22;9.70;30.50
10245;DHT22;5167;52.164;10.530;2024-01-25T03:05:49;9.70;30.90
10245;DHT22;5167;52.164;10.530;2024-01-25T03:08:14;9.70;30.40
10245;DHT22;5167;52.164;10.530;2024-01-25T03:10:40;9.90;30.40
10245;DHT22;5167;52.164;10.530;2024-01-25T03:13:05;9.70;31.00
10245;DHT22;5167;52.164;10.530;2024-01-25T03:15:31;9.70;31.30
10245;DHT22;5167;52.164;10.530;2024-01-25T03:17:57;9.70;31.20
10245;DHT22;5167;52.164;10.530;2024-01-25T03:20:23;9.70;31.10
10245;DHT22;5167;52.164;10.530;2024-01-25T03:22:48;9.60;30.70
10245;DHT22;5167;52.164;10.530;2024-01-25T03:25:14;9.60;31.60
10245;DHT22;5167;52.164;10.530;2024-01-25T03:27:39;9.50;32.00
10245;DHT22;5167;52.164;10.530;2024-01-25T03:30:05;9.50;32.50
10245;DHT22;5167;52.164;10.530;2024-01-25T03:32:32;9.50;32.30
10245;DHT22;5167;52.164;10.530;2024-01-25T03:34:58;9.60;32.50
10245;DHT22;5167;52.164;10.530;2024-01-25T03:37:23;9.50;32.80
10245;DHT22;5167;52.164;10.530;2024-01-25T03:39:49;9.50;32.80
10245;DHT22;5167;52.164;10.530;2024-01-25T03:42:14;9.50;32.30
10245;DHT22;5167;52.164;10.530;2024-01-25T03:44:40;9.50;33.10
10245;DHT22;5167;52.164;10.530;2024-01-25T03:47:07;9.60;32.40
10245;DHT22;5167;52.164;10.530;2024-01-25T03:49:33;9.60;32.80
10245;DHT22;5167;52.164;10.530;2024-01-25T03:51:58;9.50;33.00
10245;DHT22;5167;52.164;10.530;2024-01-25T03:54:24;9.50;33.20
10245;DHT22;5167;52.164;10.530;2024-01-25T03:56:49;9.60;33.30
10245;DHT22;5167;52.164;10.530;2024-01-25T03:59:15;9.50;33.10
10245;DHT22;5167;52.164;10.530;2024-01-25T04:01:44;9.70;33.60
10245;DHT22;5167;52.164;10.530;2024-01-25T04:04:10;9.50;33.70
10245;DHT22;5167;52.164;10.530;2024-01-25T04:06:38;9.40;33.70
10245;DHT22;5167;52.164;10.530;2024-01-25T04:09:04;9.40;33.80
10245;DHT22;5167;52.164;10.530;2024-01-25T04:11:30;9.50;33.80
10245;DHT22;5167;52.164;10.530;2024-01-25T04:13:55;9.50;34.90
10245;DHT22;5167;52.164;10.530;2024-01-25T04:16:21;9.50;34.60
10245;DHT22;5167;52.164;10.530;2024-01-25T04:18:46;9.50;35.20
10245;DHT22;5167;52.164;10.530;2024-01-25T04:21:12;9.50;34.70
10245;DHT22;5167;52.164;10.530;2024-01-25T04:23:37;9.60;34.40
10245;DHT22;5167;52.164;10.530;2024-01-25T04:26:03;9.60;34.20
10245;DHT22;5167;52.164;10.530;2024-01-25T04:28:28;9.60;34.70
10245;DHT22;5167;52.164;10.530;2024-01-25T04:30:53;9.50;34.60
10245;DHT22;5167;52.164;10.530;2024-01-25T04:33:19;9.50;34.30
10245;DHT22;5167;52.164;10.530;2024-01-25T04:35:45;9.60;34.80
10245;DHT22;5167;52.164;10.530;2024-01-25T04:38:11;9.50;34.90
10245;DHT22;5167;52.164;10.530;2024-01-25T04:40:36;9.60;35.00
10245;DHT22;5167;52.164;10.530;2024-01-25T04:43:02;9.50;35.00
10245;DHT22;5167;52.164;10.530;2024-01-25T04:45:27;9.50;35.10
10245;DHT22;5167;52.164;10.530;2024-01-25T04:47:52;9.50;35.30
10245;DHT22;5167;52.164;10.530;2024-01-25T04:50:18;9.40;35.00
10245;DHT22;5167;52.164;10.530;2024-01-25T04:52:43;9.40;35.60
10245;DHT22;5167;52.164;10.530;2024-01-25T04:55:09;9.40;35.00
10245;DHT22;5167;52.164;10.530;2024-01-25T04:57:34;9.40;35.00
10245;DHT22;5167;52.164;10.530;2024-01-25T05:00:00;9.40;35.40
10245;DHT22;5167;52.164;10.530;2024-01-25T05:02:25;9.40;35.30
10245;DHT22;5167;52.164;10.530;2024-01-25T05:04:51;9.50;34.60
10245;DHT22;5167;52.164;10.530;2024-01-25T05:07:16;9.40;34.80
10245;DHT22;5167;52.164;10.530;2024-01-25T05:09:42;9.30;35.70
10245;DHT22;5167;52.164;10.530;2024-01-25T05:12:07;9.30;35.60
10245;DHT22;5167;52.164;10.530;2024-01-25T05:14:33;9.50;35.80
10245;DHT22;5167;52.164;10.530;2024-01-25T05:16:58;9.30;35.30
10245;DHT22;5167;52.164;10.530;2024-01-25T05:19:23;9.40;35.50
10245;DHT22;5167;52.164;10.530;2024-01-25T05:21:50;9.30;35.60
10245;DHT22;5167;52.164;10.530;2024-01-25T05:24:16;9.40;35.50
10245;DHT22;5167;52.164;10.530;2024-01-25T05:26:41;9.40;35.60
10245;DHT22;5167;52.164;10.530;2024-01-25T05:29:07;9.30;35.40
10245;DHT22;5167;52.164;10.530;2024-01-25T05:31:32;9.30;35.60
10245;DHT22;5167;52.164;10.530;2024-01-25T05:33:58;9.30;35.90
10245;DHT22;5167;52.164;10.530;2024-01-25T05:36:23;9.30;35.20
10245;DHT22;5167;52.164;10.530;2024-01-25T05:38:49;9.30;36.00
10245;DHT22;5167;52.164;10.530;2024-01-25T05:41:14;9.20;35.70
10245;DHT22;5167;52.164;10.530;2024-01-25T05:43:40;9.20;34.90
10245;DHT22;5167;52.164;10.530;2024-01-25T05:46:05;9.20;35.70
10245;DHT22;5167;52.164;10.530;2024-01-25T05:48:31;9.10;35.90
10245;DHT22;5167;52.164;10.530;2024-01-25T05:50:56;9.20;36.20
10245;DHT22;5167;52.164;10.530;2024-01-25T05:53:22;9.10;36.30
10245;DHT22;5167;52.164;10.530;2024-01-25T05:55:47;9.10;36.20
10245;DHT22;5167;52.164;10.530;2024-01-25T05:58:13;9.10;36.30
10245;DHT22;5167;52.164;10.530;2024-01-25T06:00:39;9.10;36.70
10245;DHT22;5167;52.164;10.530;2024-01-25T06:03:04;9.20;36.50
10245;DHT22;5167;52.164;10.530;2024-01-25T06:05:30;9.10;37.20
10245;DHT22;5167;52.164;10.530;2024-01-25T06:07:55;9.10;37.00
10245;DHT22;5167;52.164;10.530;2024-01-25T06:10:21;9.00;37.20
10245;DHT22;5167;52.164;10.530;2024-01-25T06:12:46;9.10;37.50
10245;DHT22;5167;52.164;10.530;2024-01-25T06:15:12;9.10;37.30
10245;DHT22;5167;52.164;10.530;2024-01-25T06:17:37;9.10;37.20
10245;DHT22;5167;52.164;10.530;2024-01-25T06:20:03;9.10;37.20
10245;DHT22;5167;52.164;10.530;2024-01-25T06:22:30;9.20;37.30
10245;DHT22;5167;52.164;10.530;2024-01-25T06:24:55;9.10;37.50
10245;DHT22;5167;52.164;10.530;2024-01-25T06:27:21;9.10;37.70
10245;DHT22;5167;52.164;10.530;2024-01-25T06:29:46;9.10;37.30
10245;DHT22;5167;52.164;10.530;2024-01-25T06:32:11;9.10;37.30
10245;DHT22;5167;52.164;10.530;2024-01-25T06:34:37;9.10;37.10
10245;DHT22;5167;52.164;10.530;2024-01-25T06:37:03;9.00;37.40
10245;DHT22;5167;52.164;10.530;2024-01-25T06:39:28;9.10;37.40
10245;DHT22;5167;52.164;10.530;2024-01-25T06:41:54;9.00;37.30
10245;DHT22;5167;52.164;10.530;2024-01-25T06:44:19;9.00;37.30
10245;DHT22;5167;52.164;10.530;2024-01-25T06:46:45;9.00;37.80
10245;DHT22;5167;52.164;10.530;2024-01-25T06:49:11;9.00;38.20
10245;DHT22;5167;52.164;10.530;2024-01-25T06:51:36;8.90;38.10
10245;DHT22;5167;52.164;10.530;2024-01-25T06:54:02;8.90;38.30
10245;DHT22;5167;52.164;10.530;2024-01-25T06:56:27;9.00;37.60
10245;DHT22;5167;52.164;10.530;2024-01-25T06:58:53;9.00;38.20
10245;DHT22;5167;52.164;10.530;2024-01-25T07:01:22;9.00;38.20
10245;DHT22;5167;52.164;10.530;2024-01-25T07:03:48;8.90;38.00
10245;DHT22;5167;52.164;10.530;2024-01-25T07:06:16;9.00;38.50
10245;DHT22;5167;52.164;10.530;2024-01-25T07:08:41;9.00;38.10
10245;DHT22;5167;52.164;10.530;2024-01-25T07:11:07;9.00;38.20
10245;DHT22;5167;52.164;10.530;2024-01-25T07:13:32;9.00;37.90
10245;DHT22;5167;52.164;10.530;2024-01-25T07:15:58;8.90;38.40
10245;DHT22;5167;52.164;10.530;2024-01-25T07:18:23;8.90;38.70
10245;DHT22;5167;52.164;10.530;2024-01-25T07:20:49;8.90;38.70
10245;DHT22;5167;52.164;10.530;2024-01-25T07:23:15;8.90;39.00
10245;DHT22;5167;52.164;10.530;2024-01-25T07:25:41;8.90;38.60
10245;DHT22;5167;52.164;10.530;2024-01-25T07:28:06;9.00;38.40
10245;DHT22;5167;52.164;10.530;2024-01-25T07:30:32;9.00;38.30
10245;DHT22;5167;52.164;10.530;2024-01-25T07:32:57;8.90;38.70
10245;DHT22;5167;52.164;10.530;2024-01-25T07:35:23;8.90;38.40
10245;DHT22;5167;52.164;10.530;2024-01-25T07:37:49;8.90;38.60
10245;DHT22;5167;52.164;10.530;2024-01-25T07:40:15;8.90;38.80
10245;DHT22;5167;52.164;10.530;2024-01-25T07:42:40;8.90;39.00
10245;DHT22;5167;52.164;10.530;2024-01-25T07:45:07;8.80;38.60
10245;DHT22;5167;52.164;10.530;2024-01-25T07:47:32;8.90;38.90
10245;DHT22;5167;52.164;10.530;2024-01-25T07:49:58;8.90;39.30
10245;DHT22;5167;52.164;10.530;2024-01-25T07:52:24;8.80;39.20
10245;DHT22;5167;52.164;10.530;2024-01-25T07:54:49;8.90;39.00
10245;DHT22;5167;52.164;10.530;2024-01-25T07:57:15;8.90;38.70
10245;DHT22;5167;52.164;10.530;2024-01-25T07:59:40;8.90;38.40
10245;DHT22;5167;52.164;10.530;2024-01-25T08:02:06;8.90;38.80
10245;DHT22;5167;52.164;10.530;2024-01-25T08:04:32;8.90;38.70
10245;DHT22;5167;52.164;10.530;2024-01-25T08:06:58;8.90;38.50
10245;DHT22;5167;52.164;10.530;2024-01-25T08:09:23;8.90;38.70
10245;DHT22;5167;52.164;10.530;2024-01-25T08:11:49;8.90;38.50
10245;DHT22;5167;52.164;10.530;2024-01-25T08:14:14;8.90;38.60
10245;DHT22;5167;52.164;10.530;2024-01-25T08:16:41;8.90;39.30
10245;DHT22;5167;52.164;10.530;2024-01-25T08:19:07;8.90;38.40
10245;DHT22;5167;52.164;10.530;2024-01-25T08:21:32;8.90;38.40
10245;DHT22;5167;52.164;10.530;2024-01-25T08:23:57;8.90;38.10
10245;DHT22;5167;52.164;10.530;2024-01-25T08:26:23;9.00;38.30
10245;DHT22;5167;52.164;10.530;2024-01-25T08:28:48;9.00;38.50
10245;DHT22;5167;52.164;10.530;2024-01-25T08:31:14;8.90;39.00
10245;DHT22;5167;52.164;10.530;2024-01-25T08:33:40;9.00;38.40
10245;DHT22;5167;52.164;10.530;2024-01-25T08:36:09;9.10;38.10
10245;DHT22;5167;52.164;10.530;2024-01-25T08:38:35;9.00;37.70
10245;DHT22;5167;52.164;10.530;2024-01-25T08:41:00;9.00;38.10
10245;DHT22;5167;52.164;10.530;2024-01-25T08:43:25;9.00;38.20
10245;DHT22;5167;52.164;10.530;2024-01-25T08:45:51;9.00;37.80
10245;DHT22;5167;52.164;10.530;2024-01-25T08:48:16;9.10;37.90
10245;DHT22;5167;52.164;10.530;2024-01-25T08:50:42;9.10;37.90
10245;DHT22;5167;52.164;10.530;2024-01-25T08:53:08;9.10;37.10
10245;DHT22;5167;52.164;10.530;2024-01-25T08:55:33;9.10;37.00
10245;DHT22;5167;52.164;10.530;2024-01-25T08:57:59;9.20;36.50
10245;DHT22;5167;52.164;10.530;2024-01-25T09:00:24;9.10;37.10
10245;DHT22;5167;52.164;10.530;2024-01-25T09:02:49;9.10;37.00
10245;DHT22;5167;52.164;10.530;2024-01-25T09:05:15;9.10;37.50
10245;DHT22;5167;52.164;10.530;2024-01-25T09:07:41;9.20;37.30
10245;DHT22;5167;52.164;10.530;2024-01-25T09:10:07;9.00;37.40
10245;DHT22;5167;52.164;10.530;2024-01-25T09:12:34;9.30;37.70
10245;DHT22;5167;52.164;10.530;2024-01-25T09:15:00;9.30;37.30
10245;DHT22;5167;52.164;10.530;2024-01-25T09:17:26;9.30;37.90
10245;DHT22;5167;52.164;10.530;2024-01-25T09:19:51;9.20;37.30
10245;DHT22;5167;52.164;10.530;2024-01-25T09:22:17;9.30;38.50
10245;DHT22;5167;52.164;10.530;2024-01-25T09:24:45;9.30;37.40
10245;DHT22;5167;52.164;10.530;2024-01-25T09:27:11;9.30;37.90
10245;DHT22;5167;52.164;10.530;2024-01-25T09:29:38;9.30;37.90
10245;DHT22;5167;52.164;10.530;2024-01-25T09:32:05;9.30;37.60
10245;DHT22;5167;52.164;10.530;2024-01-25T09:34:31;9.30;37.10
10245;DHT22;5167;52.164;10.530;2024-01-25T09:36:56;9.30;38.00
10245;DHT22;5167;52.164;10.530;2024-01-25T09:39:22;9.40;37.80
10245;DHT22;5167;52.164;10.530;2024-01-25T09:41:47;9.40;37.70
10245;DHT22;5167;52.164;10.530;2024-01-25T09:44:13;9.40;37.40
10245;DHT22;5167;52.164;10.530;2024-01-25T09:46:39;9.40;36.80
10245;DHT22;5167;52.164;10.530;2024-01-25T09:49:07;9.50;36.30
10245;DHT22;5167;52.164;10.530;2024-01-25T09:51:41;9.40;36.70
10245;DHT22;5167;52.164;10.530;2024-01-25T09:54:07;9.40;37.20
10245;DHT22;5167;52.164;10.530;2024-01-25T09:56:33;9.40;37.60
10245;DHT22;5167;52.164;10.530;2024-01-25T09:58:59;9.40;37.50
10245;DHT22;5167;52.164;10.530;2024-01-25T10:01:25;9.40;37.50
10245;DHT22;5167;52.164;10.530;2024-01-25T10:03:52;9.50;37.60
10245;DHT22;5167;52.164;10.530;2024-01-25T10:06:17;9.50;37.70
10245;DHT22;5167;52.164;10.530;2024-01-25T10:08:44;9.50;37.80
10245;DHT22;5167;52.164;10.530;2024-01-25T10:11:10;9.60;38.00
10245;DHT22;5167;52.164;10.530;2024-01-25T10:13:45;9.60;37.60
10245;DHT22;5167;52.164;10.530;2024-01-25T10:16:15;9.60;36.90
10245;DHT22;5167;52.164;10.530;2024-01-25T10:18:41;9.60;36.70
10245;DHT22;5167;52.164;10.530;2024-01-25T10:21:09;9.70;35.70
10245;DHT22;5167;52.164;10.530;2024-01-25T10:23:35;9.70;35.40
10245;DHT22;5167;52.164;10.530;2024-01-25T10:26:00;9.60;35.60
10245;DHT22;5167;52.164;10.530;2024-01-25T10:28:26;9.60;35.60
10245;DHT22;5167;52.164;10.530;2024-01-25T10:30:56;9.60;34.90
10245;DHT22;5167;52.164;10.530;2024-01-25T10:33:24;9.60;35.50
10245;DHT22;5167;52.164;10.530;2024-01-25T10:35:50;9.60;35.70
10245;DHT22;5167;52.164;10.530;2024-01-25T10:38:17;9.60;35.00
10245;DHT22;5167;52.164;10.530;2024-01-25T10:40:43;9.60;35.00
10245;DHT22;5167;52.164;10.530;2024-01-25T10:43:11;9.50;35.40
10245;DHT22;5167;52.164;10.530;2024-01-25T10:45:36;9.60;35.40
10245;DHT22;5167;52.164;10.530;2024-01-25T10:48:02;9.60;34.80
10245;DHT22;5167;52.164;10.530;2024-01-25T10:50:28;9.80;34.70
10245;DHT22;5167;52.164;10.530;2024-01-25T10:52:53;9.80;33.90
10245;DHT22;5167;52.164;10.530;2024-01-25T10:55:19;10.00;33.40
10245;DHT22;5167;52.164;10.530;2024-01-25T10:57:45;10.10;31.90
10245;DHT22;5167;52.164;10.530;2024-01-25T11:00:13;10.30;31.20
10245;DHT22;5167;52.164;10.530;2024-01-25T11:02:40;10.10;30.50
10245;DHT22;5167;52.164;10.530;2024-01-25T11:05:09;10.10;30.00
10245;DHT22;5167;52.164;10.530;2024-01-25T11:07:45;10.20;30.90
10245;DHT22;5167;52.164;10.530;2024-01-25T11:10:24;10.10;30.50
10245;DHT22;5167;52.164;10.530;2024-01-25T11:13:00;10.00;30.10
10245;DHT22;5167;52.164;10.530;2024-01-25T11:15:35;10.00;30.00
10245;DHT22;5167;52.164;10.530;2024-01-25T11:18:02;10.00;30.30
10245;DHT22;5167;52.164;10.530;2024-01-25T11:20:29;10.00;30.30
10245;DHT22;5167;52.164;10.530;2024-01-25T11:23:01;10.00;30.10
10245;DHT22;5167;52.164;10.530;2024-01-25T11:25:31;10.00;30.10
10245;DHT22;5167;52.164;10.530;2024-01-25T11:27:57;10.00;29.30
10245;DHT22;5167;52.164;10.530;2024-01-25T11:30:23;9.90;29.70
10245;DHT22;5167;52.164;10.530;2024-01-25T11:32:49;10.00;29.30
10245;DHT22;5167;52.164;10.530;2024-01-25T11:35:15;10.00;30.00
10245;DHT22;5167;52.164;10.530;2024-01-25T11:37:45;10.00;29.50
10245;DHT22;5167;52.164;10.530;2024-01-25T11:40:12;10.10;29.70
10245;DHT22;5167;52.164;10.530;2024-01-25T11:42:39;10.20;29.40
10245;DHT22;5167;52.164;10.530;2024-01-25T11:45:09;10.20;28.70
10245;DHT22;5167;52.164;10.530;2024-01-25T11:47:35;10.20;28.80
10245;DHT22;5167;52.164;10.530;2024-01-25T11:50:01;10.20;28.60
10245;DHT22;5167;52.164;10.530;2024-01-25T11:52:27;10.30;29.10
10245;DHT22;5167;52.164;10.530;2024-01-25T11:54:53;10.30;28.70
10245;DHT22;5167;52.164;10.530;2024-01-25T11:57:19;10.20;28.80
10245;DHT22;5167;52.164;10.530;2024-01-25T11:59:45;10.30;28.70
10245;DHT22;5167;52.164;10.530;2024-01-25T12:02:12;10.30;27.70
10245;DHT22;5167;52.164;10.530;2024-01-25T12:04:39;10.30;27.50
10245;DHT22;5167;52.164;10.530;2024-01-25T12:07:05;10.40;28.50
10245;DHT22;5167;52.164;10.530;2024-01-25T12:09:31;10.50;27.60
10245;DHT22;5167;52.164;10.530;2024-01-25T12:11:56;10.50;27.20
10245;DHT22;5167;52.164;10.530;2024-01-25T12:14:24;10.50;27.10
10245;DHT22;5167;52.164;10.530;2024-01-25T12:16:49;10.60;26.90
10245;DHT22;5167;52.164;10.530;2024-01-25T12:19:15;10.60;26.90
10245;DHT22;5167;52.164;10.530;2024-01-25T12:21:44;10.60;26.90
10245;DHT22;5167;52.164;10.530;2024-01-25T12:24:10;10.60;26.80
10245;DHT22;5167;52.164;10.530;2024-01-25T12:26:36;10.60;26.80
10245;DHT22;5167;52.164;10.530;2024-01-25T12:29:02;10.60;26.50
10245;DHT22;5167;52.164;10.530;2024-01-25T12:31:28;10.70;26.80
10245;DHT22;5167;52.164;10.530;2024-01-25T12:33:53;10.60;26.10
10245;DHT22;5167;52.164;10.530;2024-01-25T12:36:19;10.60;26.80
10245;DHT22;5167;52.164;10.530;2024-01-25T12:38:45;10.60;27.10
10245;DHT22;5167;52.164;10.530;2024-01-25T12:41:10;10.50;26.90
10245;DHT22;5167;52.164;10.530;2024-01-25T12:43:36;10.50;26.30
10245;DHT22;5167;52.164;10.530;2024-01-25T12:46:01;10.50;26.90
10245;DHT22;5167;52.164;10.530;2024-01-25T12:48:27;10.50;26.60
10245;DHT22;5167;52.164;10.530;2024-01-25T12:50:52;10.50;26.60
10245;DHT22;5167;52.164;10.530;2024-01-25T12:53:18;10.50;26.50
10245;DHT22;5167;52.164;10.530;2024-01-25T12:55:43;10.50;26.30
10245;DHT22;5167;52.164;10.530;2024-01-25T12:58:09;10.40;26.30
10245;DHT22;5167;52.164;10.530;2024-01-25T13:00:35;10.40;26.20
10245;DHT22;5167;52.164;10.530;2024-01-25T13:03:00;10.40;26.20
10245;DHT22;5167;52.164;10.530;2024-01-25T13:05:29;10.40;25.50
10245;DHT22;5167;52.164;10.530;2024-01-25T13:07:55;10.40;25.30
10245;DHT22;5167;52.164;10.530;2024-01-25T13:10:20;10.40;24.60
10245;DHT22;5167;52.164;10.530;2024-01-25T13:12:45;10.40;25.00
10245;DHT22;5167;52.164;10.530;2024-01-25T13:15:11;10.40;24.00
10245;DHT22;5167;52.164;10.530;2024-01-25T13:17:37;10.50;24.20
10245;DHT22;5167;52.164;10.530;2024-01-25T13:20:03;10.50;24.30
10245;DHT22;5167;52.164;10.530;2024-01-25T13:22:31;10.50;24.00
10245;DHT22;5167;52.164;10.530;2024-01-25T13:24:59;10.60;23.30
10245;DHT22;5167;52.164;10.530;2024-01-25T13:27:25;10.50;23.30
10245;DHT22;5167;52.164;10.530;2024-01-25T13:29:50;10.60;22.90
10245;DHT22;5167;52.164;10.530;2024-01-25T13:32:16;10.60;22.70
10245;DHT22;5167;52.164;10.530;2024-01-25T13:34:41;10.60;23.70
10245;DHT22;5167;52.164;10.530;2024-01-25T13:37:06;10.70;23.70
10245;DHT22;5167;52.164;10.530;2024-01-25T13:39:32;10.60;22.80
10245;DHT22;5167;52.164;10.530;2024-01-25T13:41:58;10.70;22.80
10245;DHT22;5167;52.164;10.530;2024-01-25T13:44:23;10.70;21.90
10245;DHT22;5167;52.164;10.530;2024-01-25T13:46:49;10.70;21.40
10245;DHT22;5167;52.164;10.530;2024-01-25T13:49:15;10.70;21.80
10245;DHT22;5167;52.164;10.530;2024-01-25T13:51:40;10.60;21.50
10245;DHT22;5167;52.164;10.530;2024-01-25T13:54:06;10.60;20.80
10245;DHT22;5167;52.164;10.530;2024-01-25T13:56:31;10.60;20.90
10245;DHT22;5167;52.164;10.530;2024-01-25T13:58:57;10.50;20.60
10245;DHT22;5167;52.164;10.530;2024-01-25T14:01:22;10.50;20.70
10245;DHT22;5167;52.164;10.530;2024-01-25T14:03:48;10.50;21.10
10245;DHT22;5167;52.164;10.530;2024-01-25T14:06:13;10.40;21.50
10245;DHT22;5167;52.164;10.530;2024-01-25T14:08:39;10.40;21.50
10245;DHT22;5167;52.164;10.530;2024-01-25T14:11:04;10.40;21.00
10245;DHT22;5167;52.164;10.530;2024-01-25T14:13:33;10.40;21.30
10245;DHT22;5167;52.164;10.530;2024-01-25T14:15:58;10.40;21.50
10245;DHT22;5167;52.164;10.530;2024-01-25T14:18:24;10.40;21.50
10245;DHT22;5167;52.164;10.530;2024-01-25T14:20:50;10.30;21.70
10245;DHT22;5167;52.164;10.530;2024-01-25T14:23:15;10.30;21.70
10245;DHT22;5167;52.164;10.530;2024-01-25T14:25:41;10.30;22.50
10245;DHT22;5167;52.164;10.530;2024-01-25T14:28:06;10.30;22.20
10245;DHT22;5167;52.164;10.530;2024-01-25T14:30:32;10.30;22.40
10245;DHT22;5167;52.164;10.530;2024-01-25T14:32:57;10.40;21.70
10245;DHT22;5167;52.164;10.530;2024-01-25T14:35:23;10.30;22.30
10245;DHT22;5167;52.164;10.530;2024-01-25T14:37:54;10.30;22.40
10245;DHT22;5167;52.164;10.530;2024-01-25T14:40:22;10.30;22.20
10245;DHT22;5167;52.164;10.530;2024-01-25T14:42:47;10.30;22.00
10245;DHT22;5167;52.164;10.530;2024-01-25T14:45:13;10.50;22.10
10245;DHT22;5167;52.164;10.530;2024-01-25T14:47:39;10.30;22.10
10245;DHT22;5167;52.164;10.530;2024-01-25T14:50:05;10.30;22.40
10245;DHT22;5167;52.164;10.530;2024-01-25T14:52:30;10.30;22.20
10245;DHT22;5167;52.164;10.530;2024-01-25T14:55:02;10.20;22.30
10245;DHT22;5167;52.164;10.530;2024-01-25T14:57:27;10.20;22.90
10245;DHT22;5167;52.164;10.530;2024-01-25T14:59:53;10.20;23.20
10245;DHT22;5167;52.164;10.530;2024-01-25T15:02:18;10.20;23.10
10245;DHT22;5167;52.164;10.530;2024-01-25T15:04:44;10.20;23.10
10245;DHT22;5167;52.164;10.530;2024-01-25T15:07:09;10.20;23.10
10245;DHT22;5167;52.164;10.530;2024-01-25T15:09:35;10.10;23.50
10245;DHT22;5167;52.164;10.530;2024-01-25T15:12:00;10.10;23.90
10245;DHT22;5167;52.164;10.530;2024-01-25T15:14:26;10.00;23.60
10245;DHT22;5167;52.164;10.530;2024-01-25T15:16:51;10.10;23.70
10245;DHT22;5167;52.164;10.530;2024-01-25T15:19:17;10.00;23.30
10245;DHT22;5167;52.164;10.530;2024-01-25T15:21:43;10.00;23.20
10245;DHT22;5167;52.164;10.530;2024-01-25T15:24:08;10.00;23.80
10245;DHT22;5167;52.164;10.530;2024-01-25T15:26:34;10.00;23.70
10245;DHT22;5167;52.164;10.530;2024-01-25T15:29:00;9.90;23.80
10245;DHT22;5167;52.164;10.530;2024-01-25T15:31:25;9.90;23.70